sensor_id;sensor_type;location;lat;lon;timestamp;temperature;humidity
26326;DHT22;14032;52.510;7.342;2022-07-23T00:01:17;15.30;99.90
26326;DHT22;14032;52.510;7.342;2022-07-23T00:03:42;15.40;99.90
26326;DHT22;14032;52.510;7.342;2022-07-23T00:06:08;15.40;99.90
26326;DHT22;14032;52.510;7.342;2022-07-23T00:08:34;15.30;99.90
26326;DHT22;14032;52.510;7.342;2022-07-23T00:11:00;15.30;99.90
26326;DHT22;14032;52.510;7.342;2022-07-23T00:13:26;15.30;99.90
26326;DHT22;14032;52.510;7.342;2022-07-23T00:15:52;15.30;99.90
26326;DHT22;14032;52.510;7.342;2022-07-23T00:18:18;15.30;99.90
26326;DHT22;14032;52.510;7.342;2022-07-23T00:20:43;15.30;99.90
26326;DHT22;14032;52.510;7.342;2022-07-23T00:23:09;15.30;99.90
26326;DHT22;14032;52.510;7.342;2022-07-23T00:25:35;15.30;99.90
26326;DHT22;14032;52.510;7.342;2022-07-23T00:28:03;15.30;99.90
26326;DHT22;14032;52.510;7.342;2022-07-23T00:30:30;15.30;99.90
26326;DHT22;14032;52.510;7.342;2022-07-23T00:33:01;15.30;99.90
26326;DHT22;14032;52.510;7.342;2022-07-23T00:35:30;15.30;99.90
26326;DHT22;14032;52.510;7.342;2022-07-23T00:37:57;15.30;99.90
26326;DHT22;14032;52.510;7.342;2022-07-23T00:40:23;15.30;99.90
26326;DHT22;14032;52.510;7.342;2022-07-23T00:42:49;15.30;99.90
26326;DHT22;14032;52.510;7.342;2022-07-23T00:45:14;15.20;99.90
26326;DHT22;14032;52.510;7.342;2022-07-23T00:47:40;15.20;99.90
26326;DHT22;14032;52.510;7.342;2022-07-23T00:50:07;15.20;99.90
26326;DHT22;14032;52.510;7.342;2022-07-23T00:52:35;15.20;99.90
26326;DHT22;14032;52.510;7.342;2022-07-23T00:55:01;15.20;99.90
26326;DHT22;14032;52.510;7.342;2022-07-23T00:57:27;15.30;99.90
26326;DHT22;14032;52.510;7.342;2022-07-23T00:59:52;15.20;99.90
26326;DHT22;14032;52.510;7.342;2022-07-23T01:02:18;15.20;99.90
26326;DHT22;14032;52.510;7.342;2022-07-23T01:04:44;15.20;99.90
26326;DHT22;14032;52.510;7.342;2022-07-23T01:07:10;15.20;99.90
26326;DHT22;14032;52.510;7.342;2022-07-23T01:09:36;15.10;99.90
26326;DHT22;14032;52.510;7.342;2022-07-23T01:12:03;15.10;99.90
26326;DHT22;14032;52.510;7.342;2022-07-23T01:14:29;15.00;99.90
26326;DHT22;14032;52.510;7.342;2022-07-23T01:16:54;15.10;99.90
26326;DHT22;14032;52.510;7.342;2022-07-23T01:19:20;15.00;99.90
26326;DHT22;14032;52.510;7.342;2022-07-23T01:21:51;15.00;99.90
26326;DHT22;14032;52.510;7.342;2022-07-23T01:24:17;15.00;99.90
26326;DHT22;14032;52.510;7.342;2022-07-23T01:26:47;15.10;99.90
26326;DHT22;14032;52.510;7.342;2022-07-23T01:29:13;15.00;99.90
26326;DHT22;14032;52.510;7.342;2022-07-23T01:31:39;15.00;99.90
26326;DHT22;14032;52.510;7.342;2022-07-23T01:34:05;15.00;99.90
26326;DHT22;14032;52.510;7.342;2022-07-23T01:36:33;15.00;99.90
26326;DHT22;14032;52.510;7.342;2022-07-23T01:38:58;14.90;99.90
26326;DHT22;14032;52.510;7.342;2022-07-23T01:41:24;14.90;99.90
26326;DHT22;14032;52.510;7.342;2022-07-23T01:43:50;14.80;99.90
26326;DHT22;14032;52.510;7.342;2022-07-23T01:46:16;14.80;99.90
26326;DHT22;14032;52.510;7.342;2022-07-23T01:48:41;14.70;99.90
26326;DHT22;14032;52.510;7.342;2022-07-23T01:51:07;14.70;99.90
26326;DHT22;14032;52.510;7.342;2022-07-23T01:53:33;14.70;99.90
26326;DHT22;14032;52.510;7.342;2022-07-23T01:56:00;14.60;99.90
26326;DHT22;14032;52.510;7.342;2022-07-23T01:58:26;14.60;99.90
26326;DHT22;14032;52.510;7.342;2022-07-23T02:00:53;14.60;99.90
26326;DHT22;14032;52.510;7.342;2022-07-23T02:03:19;14.60;99.90
26326;DHT22;14032;52.510;7.342;2022-07-23T02:05:45;14.50;99.90
26326;DHT22;14032;52.510;7.342;2022-07-23T02:08:10;14.50;99.90
26326;DHT22;14032;52.510;7.342;2022-07-23T02:10:36;14.50;99.90
26326;DHT22;14032;52.510;7.342;2022-07-23T02:13:02;14.50;99.90
26326;DHT22;14032;52.510;7.342;2022-07-23T02:15:27;14.40;99.90
26326;DHT22;14032;52.510;7.342;2022-07-23T02:17:54;14.40;99.90
26326;DHT22;14032;52.510;7.342;2022-07-23T02:20:20;14.40;99.90
26326;DHT22;14032;52.510;7.342;2022-07-23T02:22:45;14.40;99.90
26326;DHT22;14032;52.510;7.342;2022-07-23T02:25:11;14.40;99.90
26326;DHT22;14032;52.510;7.342;2022-07-23T02:27:37;14.30;99.90
26326;DHT22;14032;52.510;7.342;2022-07-23T02:30:03;14.40;99.90
26326;DHT22;14032;52.510;7.342;2022-07-23T02:32:29;14.30;99.90
26326;DHT22;14032;52.510;7.342;2022-07-23T02:34:54;14.30;99.90
26326;DHT22;14032;52.510;7.342;2022-07-23T02:37:20;14.30;99.90
26326;DHT22;14032;52.510;7.342;2022-07-23T02:39:46;14.30;99.90
26326;DHT22;14032;52.510;7.342;2022-07-23T02:42:14;14.30;99.90
26326;DHT22;14032;52.510;7.342;2022-07-23T02:44:39;14.30;99.90
26326;DHT22;14032;52.510;7.342;2022-07-23T02:47:05;14.20;99.90
26326;DHT22;14032;52.510;7.342;2022-07-23T02:49:31;14.20;99.90
26326;DHT22;14032;52.510;7.342;2022-07-23T02:51:56;14.20;99.90
26326;DHT22;14032;52.510;7.342;2022-07-23T02:54:22;14.10;99.90
26326;DHT22;14032;52.510;7.342;2022-07-23T02:56:47;14.10;99.90
26326;DHT22;14032;52.510;7.342;2022-07-23T02:59:13;14.10;99.90
26326;DHT22;14032;52.510;7.342;2022-07-23T03:01:39;14.00;99.90
26326;DHT22;14032;52.510;7.342;2022-07-23T03:04:05;13.90;99.90
26326;DHT22;14032;52.510;7.342;2022-07-23T03:06:30;14.00;99.90
26326;DHT22;14032;52.510;7.342;2022-07-23T03:08:56;13.90;99.90
26326;DHT22;14032;52.510;7.342;2022-07-23T03:11:21;13.90;99.90
26326;DHT22;14032;52.510;7.342;2022-07-23T03:13:47;13.90;99.90
26326;DHT22;14032;52.510;7.342;2022-07-23T03:16:12;13.90;99.90
26326;DHT22;14032;52.510;7.342;2022-07-23T03:18:38;13.80;99.90
26326;DHT22;14032;52.510;7.342;2022-07-23T03:21:04;13.80;99.90
26326;DHT22;14032;52.510;7.342;2022-07-23T03:23:29;13.80;99.90
26326;DHT22;14032;52.510;7.342;2022-07-23T03:25:55;13.80;99.90
26326;DHT22;14032;52.510;7.342;2022-07-23T03:28:21;13.70;99.90
26326;DHT22;14032;52.510;7.342;2022-07-23T03:30:47;13.70;99.90
26326;DHT22;14032;52.510;7.342;2022-07-23T03:33:15;13.60;99.90
26326;DHT22;14032;52.510;7.342;2022-07-23T03:35:45;13.60;99.90
26326;DHT22;14032;52.510;7.342;2022-07-23T03:38:12;13.50;99.90
26326;DHT22;14032;52.510;7.342;2022-07-23T03:40:38;13.50;99.90
26326;DHT22;14032;52.510;7.342;2022-07-23T03:43:03;13.50;99.90
26326;DHT22;14032;52.510;7.342;2022-07-23T03:45:29;13.50;99.90
26326;DHT22;14032;52.510;7.342;2022-07-23T03:47:55;13.50;99.90
26326;DHT22;14032;52.510;7.342;2022-07-23T03:50:21;13.50;99.90
26326;DHT22;14032;52.510;7.342;2022-07-23T03:52:47;13.50;99.90
26326;DHT22;14032;52.510;7.342;2022-07-23T03:55:12;13.40;99.90
26326;DHT22;14032;52.510;7.342;2022-07-23T03:57:38;13.40;99.90
26326;DHT22;14032;52.510;7.342;2022-07-23T04:00:06;13.50;99.90
26326;DHT22;14032;52.510;7.342;2022-07-23T04:02:33;13.50;99.90
26326;DHT22;14032;52.510;7.342;2022-07-23T04:04:59;13.50;99.90
26326;DHT22;14032;52.510;7.342;2022-07-23T04:07:25;13.50;99.90
26326;DHT22;14032;52.510;7.342;2022-07-23T04:09:51;13.50;99.90
26326;DHT22;14032;52.510;7.342;2022-07-23T04:12:16;13.50;99.90
26326;DHT22;14032;52.510;7.342;2022-07-23T04:14:42;13.50;99.90
26326;DHT22;14032;52.510;7.342;2022-07-23T04:17:08;13.50;99.90
26326;DHT22;14032;52.510;7.342;2022-07-23T04:19:33;13.50;99.90
26326;DHT22;14032;52.510;7.342;2022-07-23T04:22:00;13.50;99.90
26326;DHT22;14032;52.510;7.342;2022-07-23T04:24:26;13.50;99.90
26326;DHT22;14032;52.510;7.342;2022-07-23T04:26:52;13.50;99.90
26326;DHT22;14032;52.510;7.342;2022-07-23T04:29:18;13.50;99.90
26326;DHT22;14032;52.510;7.342;2022-07-23T04:31:43;13.50;99.90
26326;DHT22;14032;52.510;7.342;2022-07-23T04:34:09;13.50;99.90
26326;DHT22;14032;52.510;7.342;2022-07-23T04:36:35;13.60;99.90
26326;DHT22;14032;52.510;7.342;2022-07-23T04:39:00;13.50;99.90
26326;DHT22;14032;52.510;7.342;2022-07-23T04:41:26;13.60;99.90
26326;DHT22;14032;52.510;7.342;2022-07-23T04:43:51;13.60;99.90
26326;DHT22;14032;52.510;7.342;2022-07-23T04:46:18;13.60;99.90
26326;DHT22;14032;52.510;7.342;2022-07-23T04:48:43;13.60;99.90
26326;DHT22;14032;52.510;7.342;2022-07-23T04:51:10;13.60;99.90
26326;DHT22;14032;52.510;7.342;2022-07-23T04:53:37;13.70;99.90
26326;DHT22;14032;52.510;7.342;2022-07-23T04:56:04;13.60;99.90
26326;DHT22;14032;52.510;7.342;2022-07-23T04:58:29;13.60;99.90
26326;DHT22;14032;52.510;7.342;2022-07-23T05:00:57;13.60;99.90
26326;DHT22;14032;52.510;7.342;2022-07-23T05:03:23;13.70;99.90
26326;DHT22;14032;52.510;7.342;2022-07-23T05:05:49;13.70;99.90
26326;DHT22;14032;52.510;7.342;2022-07-23T05:08:14;13.70;99.90
26326;DHT22;14032;52.510;7.342;2022-07-23T05:10:40;13.80;99.90
26326;DHT22;14032;52.510;7.342;2022-07-23T05:13:06;13.80;99.90
26326;DHT22;14032;52.510;7.342;2022-07-23T05:15:31;13.90;99.90
26326;DHT22;14032;52.510;7.342;2022-07-23T05:17:57;14.00;99.90
26326;DHT22;14032;52.510;7.342;2022-07-23T05:20:23;14.00;99.90
26326;DHT22;14032;52.510;7.342;2022-07-23T05:22:48;14.10;99.90
26326;DHT22;14032;52.510;7.342;2022-07-23T05:25:14;14.20;99.90
26326;DHT22;14032;52.510;7.342;2022-07-23T05:27:39;14.30;99.90
26326;DHT22;14032;52.510;7.342;2022-07-23T05:30:05;14.30;99.90
26326;DHT22;14032;52.510;7.342;2022-07-23T05:32:32;14.40;99.90
26326;DHT22;14032;52.510;7.342;2022-07-23T05:34:58;14.50;99.90
26326;DHT22;14032;52.510;7.342;2022-07-23T05:37:23;14.70;99.90
26326;DHT22;14032;52.510;7.342;2022-07-23T05:39:49;14.70;99.90
26326;DHT22;14032;52.510;7.342;2022-07-23T05:42:15;14.80;99.90
26326;DHT22;14032;52.510;7.342;2022-07-23T05:44:40;14.90;99.90
26326;DHT22;14032;52.510;7.342;2022-07-23T05:47:06;14.90;99.90
26326;DHT22;14032;52.510;7.342;2022-07-23T05:49:32;15.00;99.90
26326;DHT22;14032;52.510;7.342;2022-07-23T05:51:58;15.10;99.90
26326;DHT22;14032;52.510;7.342;2022-07-23T05:54:24;15.20;99.90
26326;DHT22;14032;52.510;7.342;2022-07-23T05:56:50;15.30;99.90
26326;DHT22;14032;52.510;7.342;2022-07-23T05:59:15;15.30;99.90
26326;DHT22;14032;52.510;7.342;2022-07-23T06:01:41;15.40;99.90
26326;DHT22;14032;52.510;7.342;2022-07-23T06:04:07;15.40;99.90
26326;DHT22;14032;52.510;7.342;2022-07-23T06:06:33;15.50;99.90
26326;DHT22;14032;52.510;7.342;2022-07-23T06:08:59;15.60;99.90
26326;DHT22;14032;52.510;7.342;2022-07-23T06:11:24;15.70;99.90
26326;DHT22;14032;52.510;7.342;2022-07-23T06:13:50;15.80;99.90
26326;DHT22;14032;52.510;7.342;2022-07-23T06:16:15;15.90;99.90
26326;DHT22;14032;52.510;7.342;2022-07-23T06:18:41;16.00;99.90
26326;DHT22;14032;52.510;7.342;2022-07-23T06:21:07;16.00;99.90
26326;DHT22;14032;52.510;7.342;2022-07-23T06:23:33;16.10;99.90
26326;DHT22;14032;52.510;7.342;2022-07-23T06:25:58;16.20;99.90
26326;DHT22;14032;52.510;7.342;2022-07-23T06:28:24;16.20;99.90
26326;DHT22;14032;52.510;7.342;2022-07-23T06:30:49;16.20;99.90
26326;DHT22;14032;52.510;7.342;2022-07-23T06:33:15;16.30;99.90
26326;DHT22;14032;52.510;7.342;2022-07-23T06:35:41;16.40;99.90
26326;DHT22;14032;52.510;7.342;2022-07-23T06:38:06;16.50;99.90
26326;DHT22;14032;52.510;7.342;2022-07-23T06:40:32;16.50;99.90
26326;DHT22;14032;52.510;7.342;2022-07-23T06:42:57;16.50;99.90
26326;DHT22;14032;52.510;7.342;2022-07-23T06:45:23;16.60;99.90
26326;DHT22;14032;52.510;7.342;2022-07-23T06:47:49;16.70;99.90
26326;DHT22;14032;52.510;7.342;2022-07-23T06:50:14;16.80;99.90
26326;DHT22;14032;52.510;7.342;2022-07-23T06:52:41;16.90;99.90
26326;DHT22;14032;52.510;7.342;2022-07-23T06:55:07;16.90;99.90
26326;DHT22;14032;52.510;7.342;2022-07-23T06:57:32;17.00;99.90
26326;DHT22;14032;52.510;7.342;2022-07-23T06:59:58;17.00;99.90
26326;DHT22;14032;52.510;7.342;2022-07-23T07:02:24;17.10;99.90
26326;DHT22;14032;52.510;7.342;2022-07-23T07:04:49;17.10;99.90
26326;DHT22;14032;52.510;7.342;2022-07-23T07:07:15;17.10;99.90
26326;DHT22;14032;52.510;7.342;2022-07-23T07:09:40;17.10;99.90
26326;DHT22;14032;52.510;7.342;2022-07-23T07:12:06;17.20;99.90
26326;DHT22;14032;52.510;7.342;2022-07-23T07:14:32;17.30;99.90
26326;DHT22;14032;52.510;7.342;2022-07-23T07:16:57;17.40;99.90
26326;DHT22;14032;52.510;7.342;2022-07-23T07:19:23;17.50;99.90
26326;DHT22;14032;52.510;7.342;2022-07-23T07:21:49;17.60;99.90
26326;DHT22;14032;52.510;7.342;2022-07-23T07:24:14;17.60;99.90
26326;DHT22;14032;52.510;7.342;2022-07-23T07:26:40;17.80;99.90
26326;DHT22;14032;52.510;7.342;2022-07-23T07:29:06;18.00;99.90
26326;DHT22;14032;52.510;7.342;2022-07-23T07:31:31;18.00;99.90
26326;DHT22;14032;52.510;7.342;2022-07-23T07:33:58;18.10;99.90
26326;DHT22;14032;52.510;7.342;2022-07-23T07:36:23;18.10;99.90
26326;DHT22;14032;52.510;7.342;2022-07-23T07:38:49;18.20;99.90
26326;DHT22;14032;52.510;7.342;2022-07-23T07:41:15;18.20;99.90
26326;DHT22;14032;52.510;7.342;2022-07-23T07:43:41;18.20;99.90
26326;DHT22;14032;52.510;7.342;2022-07-23T07:46:06;18.30;99.90
26326;DHT22;14032;52.510;7.342;2022-07-23T07:48:36;18.20;99.90
26326;DHT22;14032;52.510;7.342;2022-07-23T07:51:03;18.10;99.90
26326;DHT22;14032;52.510;7.342;2022-07-23T07:53:29;17.90;99.90
26326;DHT22;14032;52.510;7.342;2022-07-23T07:55:54;17.70;99.90
26326;DHT22;14032;52.510;7.342;2022-07-23T07:58:20;17.60;99.90
26326;DHT22;14032;52.510;7.342;2022-07-23T08:00:46;17.60;99.90
26326;DHT22;14032;52.510;7.342;2022-07-23T08:03:11;17.60;99.90
26326;DHT22;14032;52.510;7.342;2022-07-23T08:05:37;17.70;99.90
26326;DHT22;14032;52.510;7.342;2022-07-23T08:08:03;17.80;99.90
26326;DHT22;14032;52.510;7.342;2022-07-23T08:10:29;18.00;99.90
26326;DHT22;14032;52.510;7.342;2022-07-23T08:12:57;18.10;99.90
26326;DHT22;14032;52.510;7.342;2022-07-23T08:15:24;18.20;99.90
26326;DHT22;14032;52.510;7.342;2022-07-23T08:17:50;18.20;99.90
26326;DHT22;14032;52.510;7.342;2022-07-23T08:20:18;18.10;99.90
26326;DHT22;14032;52.510;7.342;2022-07-23T08:22:50;18.00;99.90
26326;DHT22;14032;52.510;7.342;2022-07-23T08:25:23;18.10;99.90
26326;DHT22;14032;52.510;7.342;2022-07-23T08:27:50;18.30;99.90
26326;DHT22;14032;52.510;7.342;2022-07-23T08:30:16;18.30;99.90
26326;DHT22;14032;52.510;7.342;2022-07-23T08:32:54;18.50;99.90
26326;DHT22;14032;52.510;7.342;2022-07-23T08:37:51;18.50;99.90
26326;DHT22;14032;52.510;7.342;2022-07-23T08:40:18;18.50;99.90
26326;DHT22;14032;52.510;7.342;2022-07-23T08:42:46;18.60;99.90
26326;DHT22;14032;52.510;7.342;2022-07-23T08:45:13;18.70;99.90
26326;DHT22;14032;52.510;7.342;2022-07-23T08:47:41;18.70;99.90
26326;DHT22;14032;52.510;7.342;2022-07-23T08:50:07;18.70;99.90
26326;DHT22;14032;52.510;7.342;2022-07-23T08:52:34;18.50;99.90
26326;DHT22;14032;52.510;7.342;2022-07-23T08:55:00;18.40;99.90
26326;DHT22;14032;52.510;7.342;2022-07-23T08:57:25;18.50;99.90
26326;DHT22;14032;52.510;7.342;2022-07-23T08:59:51;18.70;99.90
26326;DHT22;14032;52.510;7.342;2022-07-23T09:02:17;18.90;99.90
26326;DHT22;14032;52.510;7.342;2022-07-23T09:04:43;18.80;99.90
26326;DHT22;14032;52.510;7.342;2022-07-23T09:07:08;18.70;99.90
26326;DHT22;14032;52.510;7.342;2022-07-23T09:09:34;18.70;99.90
26326;DHT22;14032;52.510;7.342;2022-07-23T09:12:05;18.80;99.90
26326;DHT22;14032;52.510;7.342;2022-07-23T09:14:42;18.90;99.90
26326;DHT22;14032;52.510;7.342;2022-07-23T09:19:35;19.00;99.90
26326;DHT22;14032;52.510;7.342;2022-07-23T09:30:19;19.00;99.90
26326;DHT22;14032;52.510;7.342;2022-07-23T09:33:10;18.90;99.90
26326;DHT22;14032;52.510;7.342;2022-07-23T09:35:55;19.00;99.90
26326;DHT22;14032;52.510;7.342;2022-07-23T09:38:22;19.10;99.90
26326;DHT22;14032;52.510;7.342;2022-07-23T09:41:10;19.10;99.90
26326;DHT22;14032;52.510;7.342;2022-07-23T09:43:37;19.20;99.90
26326;DHT22;14032;52.510;7.342;2022-07-23T09:46:25;19.40;99.90
26326;DHT22;14032;52.510;7.342;2022-07-23T09:48:53;19.40;99.90
26326;DHT22;14032;52.510;7.342;2022-07-23T09:51:19;19.40;99.90
26326;DHT22;14032;52.510;7.342;2022-07-23T09:54:01;19.30;99.90
26326;DHT22;14032;52.510;7.342;2022-07-23T09:56:28;19.20;99.90
26326;DHT22;14032;52.510;7.342;2022-07-23T09:58:54;19.20;99.90
26326;DHT22;14032;52.510;7.342;2022-07-23T10:01:49;19.20;99.90
26326;DHT22;14032;52.510;7.342;2022-07-23T10:04:15;19.20;99.90
26326;DHT22;14032;52.510;7.342;2022-07-23T10:06:43;19.30;99.90
26326;DHT22;14032;52.510;7.342;2022-07-23T10:09:12;19.50;99.90
26326;DHT22;14032;52.510;7.342;2022-07-23T10:11:37;19.60;99.90
26326;DHT22;14032;52.510;7.342;2022-07-23T10:14:04;19.80;99.90
26326;DHT22;14032;52.510;7.342;2022-07-23T10:16:31;20.00;99.90
26326;DHT22;14032;52.510;7.342;2022-07-23T10:18:57;20.20;99.90
26326;DHT22;14032;52.510;7.342;2022-07-23T10:24:21;20.30;99.90
26326;DHT22;14032;52.510;7.342;2022-07-23T10:29:47;20.40;99.90
26326;DHT22;14032;52.510;7.342;2022-07-23T10:35:31;20.20;99.90
26326;DHT22;14032;52.510;7.342;2022-07-23T10:38:13;20.20;99.90
26326;DHT22;14032;52.510;7.342;2022-07-23T10:40:57;20.30;99.90
26326;DHT22;14032;52.510;7.342;2022-07-23T10:43:23;20.30;99.90
26326;DHT22;14032;52.510;7.342;2022-07-23T10:45:49;20.30;99.90
26326;DHT22;14032;52.510;7.342;2022-07-23T10:48:20;20.30;99.90
26326;DHT22;14032;52.510;7.342;2022-07-23T10:51:13;20.20;99.90
26326;DHT22;14032;52.510;7.342;2022-07-23T11:02:36;20.20;99.90
26326;DHT22;14032;52.510;7.342;2022-07-23T11:05:08;20.10;99.90
26326;DHT22;14032;52.510;7.342;2022-07-23T11:07:35;20.20;99.90
26326;DHT22;14032;52.510;7.342;2022-07-23T11:10:02;20.40;99.90
26326;DHT22;14032;52.510;7.342;2022-07-23T11:15:09;20.70;99.90
26326;DHT22;14032;52.510;7.342;2022-07-23T11:17:38;20.80;99.90
26326;DHT22;14032;52.510;7.342;2022-07-23T11:25:11;20.90;99.90
26326;DHT22;14032;52.510;7.342;2022-07-23T11:27:38;20.90;99.90
26326;DHT22;14032;52.510;7.342;2022-07-23T11:30:05;21.00;99.90
26326;DHT22;14032;52.510;7.342;2022-07-23T11:32:34;21.10;99.90
26326;DHT22;14032;52.510;7.342;2022-07-23T11:35:01;21.20;99.90
26326;DHT22;14032;52.510;7.342;2022-07-23T11:37:39;21.30;99.90
26326;DHT22;14032;52.510;7.342;2022-07-23T11:40:13;21.40;99.90
26326;DHT22;14032;52.510;7.342;2022-07-23T11:42:40;21.40;99.90
26326;DHT22;14032;52.510;7.342;2022-07-23T11:45:15;21.40;99.90
26326;DHT22;14032;52.510;7.342;2022-07-23T11:47:41;21.30;99.90
26326;DHT22;14032;52.510;7.342;2022-07-23T11:50:07;21.30;99.90
26326;DHT22;14032;52.510;7.342;2022-07-23T11:52:33;21.10;99.90
26326;DHT22;14032;52.510;7.342;2022-07-23T11:55:08;21.00;99.90
26326;DHT22;14032;52.510;7.342;2022-07-23T11:57:36;20.90;99.90
26326;DHT22;14032;52.510;7.342;2022-07-23T12:00:12;21.00;99.90
26326;DHT22;14032;52.510;7.342;2022-07-23T12:02:38;20.90;99.90
26326;DHT22;14032;52.510;7.342;2022-07-23T12:05:05;20.90;99.90
26326;DHT22;14032;52.510;7.342;2022-07-23T12:07:36;20.90;99.90
26326;DHT22;14032;52.510;7.342;2022-07-23T12:15:19;20.80;99.90
26326;DHT22;14032;52.510;7.342;2022-07-23T12:17:48;20.80;99.90
26326;DHT22;14032;52.510;7.342;2022-07-23T12:20:16;20.70;99.90
26326;DHT22;14032;52.510;7.342;2022-07-23T12:22:44;20.80;99.90
26326;DHT22;14032;52.510;7.342;2022-07-23T12:25:19;20.80;99.90
26326;DHT22;14032;52.510;7.342;2022-07-23T12:27:46;20.80;99.90
26326;DHT22;14032;52.510;7.342;2022-07-23T12:30:25;20.80;99.90
26326;DHT22;14032;52.510;7.342;2022-07-23T12:32:53;20.80;99.90
26326;DHT22;14032;52.510;7.342;2022-07-23T12:35:20;20.70;99.90
26326;DHT22;14032;52.510;7.342;2022-07-23T12:37:47;20.80;99.90
26326;DHT22;14032;52.510;7.342;2022-07-23T12:42:49;20.70;99.90
26326;DHT22;14032;52.510;7.342;2022-07-23T12:45:16;20.70;99.90
26326;DHT22;14032;52.510;7.342;2022-07-23T12:48:03;20.70;99.90
26326;DHT22;14032;52.510;7.342;2022-07-23T12:53:20;20.80;99.90
26326;DHT22;14032;52.510;7.342;2022-07-23T12:55:47;20.80;99.90
26326;DHT22;14032;52.510;7.342;2022-07-23T12:58:16;20.70;99.90
26326;DHT22;14032;52.510;7.342;2022-07-23T13:00:53;20.70;99.90
26326;DHT22;14032;52.510;7.342;2022-07-23T13:05:48;20.60;99.90
26326;DHT22;14032;52.510;7.342;2022-07-23T13:08:14;20.60;99.90
26326;DHT22;14032;52.510;7.342;2022-07-23T13:10:40;20.60;99.90
26326;DHT22;14032;52.510;7.342;2022-07-23T13:13:10;20.50;99.90
26326;DHT22;14032;52.510;7.342;2022-07-23T13:15:36;20.50;99.90
26326;DHT22;14032;52.510;7.342;2022-07-23T13:18:01;20.40;99.90
26326;DHT22;14032;52.510;7.342;2022-07-23T13:20:27;20.40;99.90
26326;DHT22;14032;52.510;7.342;2022-07-23T13:22:53;20.50;99.90
26326;DHT22;14032;52.510;7.342;2022-07-23T13:25:18;20.60;99.90
26326;DHT22;14032;52.510;7.342;2022-07-23T13:27:44;20.60;99.90
26326;DHT22;14032;52.510;7.342;2022-07-23T13:30:10;20.60;99.90
26326;DHT22;14032;52.510;7.342;2022-07-23T13:32:36;20.70;99.90
26326;DHT22;14032;52.510;7.342;2022-07-23T13:35:03;20.70;99.90
26326;DHT22;14032;52.510;7.342;2022-07-23T13:37:28;20.70;99.90
26326;DHT22;14032;52.510;7.342;2022-07-23T13:39:54;20.70;99.90
26326;DHT22;14032;52.510;7.342;2022-07-23T13:42:20;20.70;99.90
26326;DHT22;14032;52.510;7.342;2022-07-23T13:44:45;20.70;99.90
26326;DHT22;14032;52.510;7.342;2022-07-23T13:47:11;20.70;99.90
26326;DHT22;14032;52.510;7.342;2022-07-23T13:49:36;20.70;99.90
26326;DHT22;14032;52.510;7.342;2022-07-23T13:52:05;20.60;99.90
26326;DHT22;14032;52.510;7.342;2022-07-23T13:54:31;20.70;99.90
26326;DHT22;14032;52.510;7.342;2022-07-23T13:56:56;20.80;99.90
26326;DHT22;14032;52.510;7.342;2022-07-23T13:59:22;20.70;99.90
26326;DHT22;14032;52.510;7.342;2022-07-23T14:01:48;20.70;99.90
26326;DHT22;14032;52.510;7.342;2022-07-23T14:04:13;20.70;99.90
26326;DHT22;14032;52.510;7.342;2022-07-23T14:06:39;20.80;99.90
26326;DHT22;14032;52.510;7.342;2022-07-23T14:09:04;20.80;99.90
26326;DHT22;14032;52.510;7.342;2022-07-23T14:11:30;20.80;99.90
26326;DHT22;14032;52.510;7.342;2022-07-23T14:13:57;20.90;99.90
26326;DHT22;14032;52.510;7.342;2022-07-23T14:16:24;21.00;99.90
26326;DHT22;14032;52.510;7.342;2022-07-23T14:18:49;21.00;99.90
26326;DHT22;14032;52.510;7.342;2022-07-23T14:21:15;21.00;99.90
26326;DHT22;14032;52.510;7.342;2022-07-23T14:23:41;21.00;99.90
26326;DHT22;14032;52.510;7.342;2022-07-23T14:26:06;21.00;99.90
26326;DHT22;14032;52.510;7.342;2022-07-23T14:28:33;21.00;99.90
26326;DHT22;14032;52.510;7.342;2022-07-23T14:30:59;21.10;99.90
26326;DHT22;14032;52.510;7.342;2022-07-23T14:33:25;21.00;99.90
26326;DHT22;14032;52.510;7.342;2022-07-23T14:35:50;21.10;99.90
26326;DHT22;14032;52.510;7.342;2022-07-23T14:38:16;21.10;99.90
26326;DHT22;14032;52.510;7.342;2022-07-23T14:40:42;21.10;99.90
26326;DHT22;14032;52.510;7.342;2022-07-23T14:43:08;21.00;99.90
26326;DHT22;14032;52.510;7.342;2022-07-23T14:45:33;21.00;99.90
26326;DHT22;14032;52.510;7.342;2022-07-23T14:47:59;20.90;99.90
26326;DHT22;14032;52.510;7.342;2022-07-23T14:50:24;20.90;99.90
26326;DHT22;14032;52.510;7.342;2022-07-23T14:52:50;20.90;99.90
26326;DHT22;14032;52.510;7.342;2022-07-23T14:55:16;20.90;99.90
26326;DHT22;14032;52.510;7.342;2022-07-23T14:57:43;21.00;99.90
26326;DHT22;14032;52.510;7.342;2022-07-23T15:00:09;21.00;99.90
26326;DHT22;14032;52.510;7.342;2022-07-23T15:02:35;21.10;99.90
26326;DHT22;14032;52.510;7.342;2022-07-23T15:05:01;21.10;99.90
26326;DHT22;14032;52.510;7.342;2022-07-23T15:07:27;21.20;99.90
26326;DHT22;14032;52.510;7.342;2022-07-23T15:09:54;21.20;99.90
26326;DHT22;14032;52.510;7.342;2022-07-23T15:12:20;21.20;99.90
26326;DHT22;14032;52.510;7.342;2022-07-23T15:14:45;21.30;99.90
26326;DHT22;14032;52.510;7.342;2022-07-23T15:17:11;21.40;99.90
26326;DHT22;14032;52.510;7.342;2022-07-23T15:19:36;21.40;99.90
26326;DHT22;14032;52.510;7.342;2022-07-23T15:22:02;21.50;99.90
26326;DHT22;14032;52.510;7.342;2022-07-23T15:24:29;21.50;99.90
26326;DHT22;14032;52.510;7.342;2022-07-23T15:26:55;21.50;99.90
26326;DHT22;14032;52.510;7.342;2022-07-23T15:29:20;21.50;99.90
26326;DHT22;14032;52.510;7.342;2022-07-23T15:31:46;21.50;99.90
26326;DHT22;14032;52.510;7.342;2022-07-23T15:34:12;21.50;99.90
26326;DHT22;14032;52.510;7.342;2022-07-23T15:36:37;21.60;99.90
26326;DHT22;14032;52.510;7.342;2022-07-23T15:39:03;21.50;99.90
26326;DHT22;14032;52.510;7.342;2022-07-23T15:41:29;21.50;99.90
26326;DHT22;14032;52.510;7.342;2022-07-23T15:43:54;21.50;99.90
26326;DHT22;14032;52.510;7.342;2022-07-23T15:46:20;21.50;99.90
26326;DHT22;14032;52.510;7.342;2022-07-23T15:48:47;21.50;99.90
26326;DHT22;14032;52.510;7.342;2022-07-23T15:51:12;21.50;99.90
26326;DHT22;14032;52.510;7.342;2022-07-23T15:53:38;21.40;99.90
26326;DHT22;14032;52.510;7.342;2022-07-23T15:56:05;21.40;99.90
26326;DHT22;14032;52.510;7.342;2022-07-23T15:58:32;21.40;99.90
26326;DHT22;14032;52.510;7.342;2022-07-23T16:00:58;21.40;99.90
26326;DHT22;14032;52.510;7.342;2022-07-23T16:03:24;21.30;99.90
26326;DHT22;14032;52.510;7.342;2022-07-23T16:05:50;21.30;99.90
26326;DHT22;14032;52.510;7.342;2022-07-23T16:08:15;21.30;99.90
26326;DHT22;14032;52.510;7.342;2022-07-23T16:10:41;21.30;99.90
26326;DHT22;14032;52.510;7.342;2022-07-23T16:13:06;21.30;99.90
26326;DHT22;14032;52.510;7.342;2022-07-23T16:15:32;21.30;99.90
26326;DHT22;14032;52.510;7.342;2022-07-23T16:17:58;21.30;99.90
26326;DHT22;14032;52.510;7.342;2022-07-23T16:20:24;21.30;99.90